Time;durP1;ratioP1;P1;durP2;ratioP2;P2;SDS_P1;SDS_P2;PMS_P1;PMS_P2;Temp;Humidity;BMP_temperature;BMP_pressure;BME280_temperature;BME280_humidity;BME280_pressure;Samples;Min_cycle;Max_cycle;Signal;HPM_P1;HPM_P2
2023/10/22 00:02:06;;;;;;;0.80;0.73;;;13.80;99.90;;;;;;7389114;19;20511;-76
2023/10/22 00:04:32;;;;;;;1.00;0.70;;;13.60;99.90;;;;;;7393811;19;20210;-76
2023/10/22 00:06:58;;;;;;;0.77;0.68;;;13.50;99.90;;;;;;7389387;19;20178;-76
2023/10/22 00:09:24;;;;;;;1.35;0.90;;;13.60;99.90;;;;;;7388496;19;20139;-75
2023/10/22 00:11:49;;;;;;;1.55;0.82;;;13.70;99.90;;;;;;7390176;19;20130;-76
2023/10/22 00:14:15;;;;;;;0.68;0.60;;;13.80;99.90;;;;;;7390682;19;20131;-76
2023/10/22 00:16:41;;;;;;;0.80;0.80;;;13.80;99.90;;;;;;7390395;19;20314;-77
2023/10/22 00:19:07;;;;;;;0.63;0.63;;;13.90;99.90;;;;;;7389255;19;20948;-77
2023/10/22 00:21:33;;;;;;;1.00;0.80;;;13.70;99.90;;;;;;7388921;19;20202;-76
2023/10/22 00:23:58;;;;;;;1.02;0.90;;;13.70;99.90;;;;;;7384972;19;20156;-76
2023/10/22 00:26:24;;;;;;;1.13;0.90;;;13.70;99.90;;;;;;7388869;19;20139;-76
2023/10/22 00:28:50;;;;;;;1.25;0.85;;;13.70;99.90;;;;;;7390368;19;20160;-76
2023/10/22 00:31:16;;;;;;;0.77;0.60;;;13.70;99.90;;;;;;7389675;19;20515;-75
2023/10/22 00:33:41;;;;;;;1.52;0.98;;;13.60;99.90;;;;;;7394817;19;20147;-76
2023/10/22 00:36:07;;;;;;;0.93;0.75;;;13.60;99.90;;;;;;7396352;19;20134;-76
2023/10/22 00:38:33;;;;;;;0.60;0.60;;;13.70;99.90;;;;;;7398764;19;20151;-76
2023/10/22 00:40:59;;;;;;;0.77;0.77;;;13.80;99.90;;;;;;7395158;19;20487;-76
2023/10/22 00:43:25;;;;;;;0.70;0.65;;;13.50;99.90;;;;;;7397222;19;20225;-76
2023/10/22 00:45:52;;;;;;;0.80;0.70;;;13.60;99.90;;;;;;7396276;19;20135;-76
2023/10/22 00:48:20;;;;;;;1.02;0.70;;;13.50;99.90;;;;;;7395565;19;20511;-76
2023/10/22 00:50:46;;;;;;;0.70;0.70;;;13.50;99.90;;;;;;7395968;19;20640;-76
2023/10/22 00:53:15;;;;;;;0.68;0.68;;;13.20;99.90;;;;;;7398778;19;20146;-76
2023/10/22 00:55:44;;;;;;;0.68;0.68;;;13.50;99.90;;;;;;7396394;19;20138;-76
2023/10/22 00:58:16;;;;;;;1.45;1.05;;;13.60;99.90;;;;;;7396999;19;20154;-76
2023/10/22 01:00:43;;;;;;;0.85;0.82;;;13.50;99.90;;;;;;7397873;19;20142;-76
2023/10/22 01:03:08;;;;;;;1.48;0.68;;;13.50;99.90;;;;;;7391209;19;20655;-76
2023/10/22 01:05:38;;;;;;;1.77;0.70;;;13.40;99.90;;;;;;7396863;19;20154;-76
2023/10/22 01:08:07;;;;;;;0.80;0.80;;;13.50;99.90;;;;;;7395605;19;20127;-76
2023/10/22 01:10:33;;;;;;;1.08;0.75;;;13.60;99.90;;;;;;7394992;19;20134;-76
2023/10/22 01:13:03;;;;;;;0.60;0.60;;;13.30;99.90;;;;;;7398156;19;20158;-76
2023/10/22 01:15:29;;;;;;;1.00;0.73;;;13.40;99.90;;;;;;7397176;19;20127;-76
2023/10/22 01:17:55;;;;;;;1.17;0.70;;;13.40;99.90;;;;;;7394894;19;20172;-76
2023/10/22 01:20:21;;;;;;;1.35;0.88;;;13.50;99.90;;;;;;7399095;19;20159;-76
2023/10/22 01:22:47;;;;;;;0.55;0.50;;;13.30;99.90;;;;;;7396828;19;20695;-76
2023/10/22 01:25:13;;;;;;;1.30;0.70;;;13.10;99.90;;;;;;7395279;19;20151;-77
2023/10/22 01:27:39;;;;;;;0.70;0.70;;;13.00;99.90;;;;;;7396775;19;20131;-76
2023/10/22 01:30:05;;;;;;;0.77;0.50;;;13.00;99.90;;;;;;7392307;19;20138;-76
2023/10/22 01:32:31;;;;;;;0.77;0.77;;;12.80;99.90;;;;;;7393992;19;20135;-75
2023/10/22 01:35:00;;;;;;;1.25;0.82;;;12.70;99.90;;;;;;7393780;19;20455;-76
2023/10/22 01:37:26;;;;;;;0.60;0.60;;;12.80;99.90;;;;;;7397349;19;20186;-75
2023/10/22 01:39:54;;;;;;;0.70;0.70;;;13.00;99.90;;;;;;7396028;19;20143;-77
2023/10/22 01:42:20;;;;;;;0.60;0.60;;;13.00;99.90;;;;;;7395371;19;20142;-76
2023/10/22 01:44:46;;;;;;;0.50;0.50;;;13.30;99.90;;;;;;7394312;19;20142;-76
2023/10/22 01:47:11;;;;;;;0.52;0.50;;;13.30;99.90;;;;;;7394719;19;20139;-75
2023/10/22 01:49:39;;;;;;;0.82;0.70;;;13.30;99.90;;;;;;7393892;19;20135;-76
2023/10/22 01:52:05;;;;;;;1.00;0.77;;;13.30;99.90;;;;;;7392078;19;20255;-75
2023/10/22 01:54:31;;;;;;;0.70;0.70;;;13.00;99.90;;;;;;7394613;19;20138;-76
2023/10/22 01:56:57;;;;;;;1.08;0.70;;;13.10;99.90;;;;;;7393942;19;20141;-75
2023/10/22 01:59:23;;;;;;;0.60;0.60;;;13.10;99.90;;;;;;7392594;19;20162;-77
2023/10/22 02:01:48;;;;;;;0.40;0.40;;;13.10;99.90;;;;;;7393583;19;20130;-75
2023/10/22 02:04:14;;;;;;;0.60;0.60;;;13.20;99.90;;;;;;7396299;19;20142;-76
2023/10/22 02:06:40;;;;;;;0.98;0.60;;;13.40;99.90;;;;;;7393248;19;20178;-75
2023/10/22 02:09:06;;;;;;;0.80;0.65;;;13.50;99.90;;;;;;7392045;19;20202;-75
2023/10/22 02:11:31;;;;;;;0.43;0.43;;;13.30;99.90;;;;;;7394905;19;20142;-76
2023/10/22 02:13:58;;;;;;;0.68;0.68;;;13.10;99.90;;;;;;7393587;19;20184;-75
2023/10/22 02:16:24;;;;;;;1.70;0.50;;;12.90;99.90;;;;;;7395538;19;20141;-77
2023/10/22 02:18:50;;;;;;;0.43;0.40;;;13.00;99.90;;;;;;7392893;19;20459;-76
2023/10/22 02:21:16;;;;;;;0.57;0.50;;;12.90;99.90;;;;;;7393419;19;20134;-75
2023/10/22 02:23:42;;;;;;;0.30;0.30;;;13.10;99.90;;;;;;7393884;19;20205;-76
2023/10/22 02:26:08;;;;;;;0.47;0.47;;;13.10;99.90;;;;;;7390759;19;20211;-76
2023/10/22 02:28:34;;;;;;;0.43;0.40;;;13.30;99.90;;;;;;7391046;19;20135;-75
2023/10/22 02:31:00;;;;;;;0.50;0.40;;;13.30;99.90;;;;;;7392966;19;20592;-75
2023/10/22 02:33:25;;;;;;;0.55;0.55;;;13.40;99.90;;;;;;7391402;19;20165;-75
2023/10/22 02:35:51;;;;;;;0.75;0.52;;;13.30;99.90;;;;;;7392858;19;20142;-76
2023/10/22 02:38:18;;;;;;;0.63;0.50;;;13.30;99.90;;;;;;7392126;19;20628;-76
2023/10/22 02:40:49;;;;;;;0.98;0.60;;;13.30;99.90;;;;;;7394217;19;20500;-76
2023/10/22 02:43:16;;;;;;;1.05;0.45;;;13.20;99.90;;;;;;7393538;19;20158;-76
2023/10/22 02:45:52;;;;;;;0.50;0.50;;;13.00;99.90;;;;;;7394891;19;20139;-76
2023/10/22 02:48:17;;;;;;;0.47;0.40;;;13.10;99.90;;;;;;7393910;19;20146;-76
2023/10/22 02:50:43;;;;;;;0.68;0.50;;;13.10;99.90;;;;;;7394033;19;20151;-75
2023/10/22 02:53:12;;;;;;;0.50;0.45;;;13.10;99.90;;;;;;7389564;19;20158;-76
2023/10/22 02:55:39;;;;;;;0.40;0.40;;;13.20;99.90;;;;;;7387008;19;20127;-76
2023/10/22 02:58:05;;;;;;;0.35;0.35;;;13.40;99.90;;;;;;7392202;19;20202;-77
2023/10/22 03:00:32;;;;;;;0.52;0.38;;;13.50;99.90;;;;;;7390333;19;20138;-77
2023/10/22 03:02:58;;;;;;;0.40;0.40;;;13.60;99.90;;;;;;7393579;19;20142;-77
2023/10/22 03:05:24;;;;;;;0.77;0.77;;;13.60;99.90;;;;;;7392824;19;20142;-76
2023/10/22 03:07:53;;;;;;;0.57;0.52;;;13.50;99.90;;;;;;7389395;19;20147;-76
2023/10/22 03:10:18;;;;;;;0.73;0.57;;;13.50;99.90;;;;;;7391581;19;20153;-76
2023/10/22 03:12:44;;;;;;;0.65;0.50;;;13.50;99.90;;;;;;7392088;19;20142;-76
2023/10/22 03:15:10;;;;;;;1.75;0.98;;;13.60;99.90;;;;;;7389311;19;20483;-76
2023/10/22 03:17:36;;;;;;;1.00;0.45;;;13.60;99.90;;;;;;7391933;19;20249;-76
2023/10/22 03:20:03;;;;;;;0.37;0.37;;;13.60;99.90;;;;;;7392347;19;20496;-76
2023/10/22 03:22:32;;;;;;;0.47;0.47;;;13.60;99.90;;;;;;7392331;19;20206;-75
2023/10/22 03:24:57;;;;;;;0.43;0.43;;;13.30;99.90;;;;;;7389408;19;20142;-75
2023/10/22 03:27:23;;;;;;;0.67;0.53;;;13.00;99.90;;;;;;7389926;19;20154;-75
2023/10/22 03:29:49;;;;;;;0.60;0.43;;;13.00;99.90;;;;;;7391143;19;20156;-76
2023/10/22 03:32:15;;;;;;;0.40;0.40;;;13.00;99.90;;;;;;7391259;19;20194;-76
2023/10/22 03:34:41;;;;;;;0.75;0.50;;;13.00;99.90;;;;;;7391208;19;20142;-76
2023/10/22 03:37:08;;;;;;;0.50;0.50;;;13.10;99.90;;;;;;7390972;19;20138;-75
2023/10/22 03:39:36;;;;;;;0.50;0.50;;;13.10;99.90;;;;;;7393614;19;20135;-76
2023/10/22 03:42:02;;;;;;;0.40;0.40;;;13.10;99.90;;;;;;7389950;19;20176;-76
2023/10/22 03:44:29;;;;;;;0.77;0.60;;;13.20;99.90;;;;;;7392386;19;20138;-75
2023/10/22 03:46:55;;;;;;;1.38;0.60;;;13.30;99.90;;;;;;7390098;19;20139;-75
2023/10/22 03:49:21;;;;;;;0.60;0.60;;;13.40;99.90;;;;;;7390491;19;20134;-76
2023/10/22 03:51:46;;;;;;;0.60;0.60;;;13.20;99.90;;;;;;7391165;19;20628;-76
2023/10/22 03:54:13;;;;;;;0.50;0.50;;;13.30;99.90;;;;;;7390099;19;20131;-76
2023/10/22 03:56:39;;;;;;;0.45;0.45;;;13.30;99.90;;;;;;7391698;19;20171;-75
2023/10/22 03:59:05;;;;;;;0.40;0.40;;;13.30;99.90;;;;;;7390166;19;20144;-76
2023/10/22 04:01:31;;;;;;;0.73;0.52;;;13.20;99.90;;;;;;7388504;19;20149;-76
2023/10/22 04:03:56;;;;;;;0.40;0.40;;;13.30;99.90;;;;;;7390200;19;20122;-75
2023/10/22 04:06:22;;;;;;;0.30;0.30;;;13.40;99.90;;;;;;7388725;19;20195;-76
2023/10/22 04:08:48;;;;;;;0.47;0.40;;;13.10;99.90;;;;;;7397081;19;20194;-74
2023/10/22 04:11:18;;;;;;;0.60;0.57;;;13.00;99.90;;;;;;7398953;19;20158;-75
2023/10/22 04:13:44;;;;;;;0.45;0.45;;;13.20;99.90;;;;;;7399768;19;20157;-75
2023/10/22 04:16:17;;;;;;;0.50;0.40;;;13.20;99.90;;;;;;7396319;19;20604;-75
2023/10/22 04:18:43;;;;;;;0.43;0.43;;;13.30;99.90;;;;;;7398356;19;20134;-75
2023/10/22 04:21:15;;;;;;;0.60;0.60;;;13.30;99.90;;;;;;7399090;19;20218;-74
2023/10/22 04:23:42;;;;;;;0.90;0.73;;;13.20;99.90;;;;;;7396244;19;20153;-75
2023/10/22 04:26:12;;;;;;;0.65;0.60;;;13.30;99.90;;;;;;7398596;19;20134;-76
2023/10/22 04:28:39;;;;;;;0.40;0.40;;;13.20;99.90;;;;;;7394731;19;20141;-76
2023/10/22 04:31:05;;;;;;;0.50;0.50;;;13.10;99.90;;;;;;7398289;19;20150;-74
2023/10/22 04:33:31;;;;;;;0.30;0.30;;;13.20;99.90;;;;;;7396433;19;20543;-74
2023/10/22 04:35:57;;;;;;;0.40;0.40;;;13.20;99.90;;;;;;7396424;19;20131;-76
2023/10/22 04:38:23;;;;;;;0.40;0.40;;;13.10;99.90;;;;;;7397508;19;20130;-74
2023/10/22 04:40:48;;;;;;;2.05;0.52;;;13.00;99.90;;;;;;7395774;19;20133;-76
2023/10/22 04:43:14;;;;;;;0.63;0.60;;;13.00;99.90;;;;;;7397578;19;20570;-76
2023/10/22 04:45:49;;;;;;;0.45;0.45;;;13.10;99.90;;;;;;7396823;19;20139;-76
2023/10/22 04:48:15;;;;;;;0.30;0.30;;;13.10;99.90;;;;;;7395753;19;20134;-76
2023/10/22 04:50:44;;;;;;;0.30;0.30;;;13.30;99.90;;;;;;7396724;19;20206;-74
2023/10/22 04:53:10;;;;;;;1.33;0.68;;;13.30;99.90;;;;;;7395678;19;20138;-75
2023/10/22 04:55:36;;;;;;;0.40;0.40;;;13.30;99.90;;;;;;7395388;19;20134;-76
2023/10/22 04:58:02;;;;;;;0.50;0.50;;;13.40;99.90;;;;;;7395445;19;20143;-75
2023/10/22 05:00:29;;;;;;;0.93;0.40;;;13.50;99.90;;;;;;7395222;19;20135;-75
2023/10/22 05:02:54;;;;;;;0.53;0.53;;;13.50;99.90;;;;;;7395112;19;20146;-76
2023/10/22 05:05:21;;;;;;;0.60;0.60;;;13.50;99.90;;;;;;7396655;19;20741;-75
2023/10/22 05:07:49;;;;;;;0.40;0.40;;;13.50;99.90;;;;;;7394060;19;20340;-74
2023/10/22 05:10:15;;;;;;;0.80;0.70;;;13.50;99.90;;;;;;7392554;19;20239;-75
2023/10/22 05:12:41;;;;;;;0.30;0.30;;;13.50;99.90;;;;;;7394972;19;20135;-75
2023/10/22 05:15:08;;;;;;;1.08;0.50;;;13.50;99.90;;;;;;7394581;19;20157;-76
2023/10/22 05:17:34;;;;;;;0.73;0.50;;;13.40;99.90;;;;;;7397273;19;20131;-75
2023/10/22 05:20:00;;;;;;;0.40;0.40;;;13.40;99.90;;;;;;7392849;19;20147;-75
2023/10/22 05:22:26;;;;;;;0.50;0.50;;;13.30;99.90;;;;;;7395265;19;20149;-76
2023/10/22 05:24:51;;;;;;;0.40;0.40;;;13.30;99.90;;;;;;7392217;19;20135;-76
2023/10/22 05:27:17;;;;;;;0.65;0.30;;;13.50;99.90;;;;;;7396837;19;20118;-75
2023/10/22 05:29:46;;;;;;;0.40;0.40;;;13.50;99.90;;;;;;7392292;19;20158;-76
2023/10/22 05:32:14;;;;;;;0.35;0.35;;;13.40;99.90;;;;;;7395195;19;20135;-75
2023/10/22 05:34:41;;;;;;;0.30;0.30;;;13.40;99.90;;;;;;7393750;19;20151;-77
2023/10/22 05:37:07;;;;;;;1.92;0.80;;;13.40;99.90;;;;;;7396153;19;20135;-75
2023/10/22 05:39:33;;;;;;;0.73;0.50;;;13.30;99.90;;;;;;7393922;19;20162;-76
2023/10/22 05:41:59;;;;;;;0.40;0.40;;;13.30;99.90;;;;;;7395386;19;20604;-76
2023/10/22 05:44:25;;;;;;;0.40;0.40;;;13.30;99.90;;;;;;7394177;19;20139;-77
2023/10/22 05:46:50;;;;;;;0.43;0.40;;;13.30;99.90;;;;;;7395778;19;20596;-75
2023/10/22 05:49:17;;;;;;;1.75;0.45;;;13.30;99.90;;;;;;7391024;19;20263;-75
2023/10/22 05:51:43;;;;;;;0.60;0.50;;;13.30;99.90;;;;;;7397188;19;20142;-76
2023/10/22 05:54:08;;;;;;;0.95;0.52;;;13.40;99.90;;;;;;7396167;19;20620;-76
2023/10/22 05:56:34;;;;;;;0.90;0.57;;;13.30;99.90;;;;;;7395546;19;20206;-76
2023/10/22 05:59:04;;;;;;;0.30;0.30;;;13.30;99.90;;;;;;7393456;19;20159;-76
2023/10/22 06:01:30;;;;;;;0.40;0.40;;;13.30;99.90;;;;;;7392689;19;20146;-75
2023/10/22 06:03:56;;;;;;;0.37;0.37;;;13.30;99.90;;;;;;7393240;19;20151;-74
2023/10/22 06:06:22;;;;;;;0.43;0.33;;;13.30;99.90;;;;;;7391123;19;20238;-75
2023/10/22 06:08:48;;;;;;;1.03;0.50;;;13.30;99.90;;;;;;7392826;19;20142;-75
2023/10/22 06:11:14;;;;;;;0.30;0.30;;;13.20;99.90;;;;;;7394502;19;20147;-76
2023/10/22 06:13:41;;;;;;;0.30;0.30;;;13.20;99.90;;;;;;7395964;19;20135;-76
2023/10/22 06:16:07;;;;;;;0.40;0.40;;;13.20;99.90;;;;;;7394153;19;20141;-76
2023/10/22 06:18:34;;;;;;;0.45;0.40;;;13.20;99.90;;;;;;7394079;19;20162;-75
2023/10/22 06:21:08;;;;;;;0.65;0.65;;;13.20;99.90;;;;;;7395608;19;20150;-75
2023/10/22 06:23:35;;;;;;;0.47;0.40;;;13.20;99.90;;;;;;7391488;19;20134;-75
2023/10/22 06:26:01;;;;;;;0.93;0.50;;;13.20;99.90;;;;;;7393264;19;20142;-75
2023/10/22 06:28:27;;;;;;;0.80;0.60;;;13.30;99.90;;;;;;7392694;19;20142;-76
2023/10/22 06:30:52;;;;;;;0.77;0.50;;;13.20;99.90;;;;;;7391671;19;20142;-75
2023/10/22 06:33:18;;;;;;;0.65;0.47;;;13.20;99.90;;;;;;7392555;19;20149;-75
2023/10/22 06:35:44;;;;;;;0.77;0.75;;;13.30;99.90;;;;;;7390028;19;20142;-75
2023/10/22 06:38:10;;;;;;;1.48;0.55;;;13.30;99.90;;;;;;7392423;19;20146;-75
2023/10/22 06:40:36;;;;;;;1.10;0.40;;;13.30;99.90;;;;;;7391463;19;20179;-75
2023/10/22 06:43:02;;;;;;;1.97;0.63;;;13.30;99.90;;;;;;7392740;19;20139;-74
2023/10/22 06:45:28;;;;;;;0.63;0.50;;;13.40;99.90;;;;;;7390861;19;20142;-76
2023/10/22 06:47:56;;;;;;;0.50;0.50;;;13.40;99.90;;;;;;7394325;19;20138;-76
2023/10/22 06:50:22;;;;;;;1.50;0.40;;;13.40;99.90;;;;;;7388737;19;20142;-75
2023/10/22 06:52:48;;;;;;;2.10;1.00;;;13.40;99.90;;;;;;7391942;19;20228;-76
2023/10/22 06:55:13;;;;;;;0.40;0.30;;;13.40;99.90;;;;;;7390942;19;20157;-76
2023/10/22 06:57:39;;;;;;;1.38;0.60;;;13.40;99.90;;;;;;7394315;19;20142;-75
2023/10/22 07:00:08;;;;;;;0.32;0.32;;;13.40;99.90;;;;;;7388574;19;20127;-75
2023/10/22 07:02:34;;;;;;;0.60;0.45;;;13.40;99.90;;;;;;7394722;19;20127;-76
2023/10/22 07:04:59;;;;;;;0.60;0.50;;;13.40;99.90;;;;;;7389697;19;20159;-75
2023/10/22 07:07:25;;;;;;;0.30;0.30;;;13.40;99.90;;;;;;7390312;19;20181;-76
2023/10/22 07:09:51;;;;;;;0.25;0.25;;;13.30;99.90;;;;;;7390922;19;20143;-76
2023/10/22 07:12:17;;;;;;;0.88;0.60;;;13.40;99.90;;;;;;7392048;19;20127;-76
2023/10/22 07:14:43;;;;;;;0.50;0.30;;;13.30;99.90;;;;;;7392304;19;20236;-76
2023/10/22 07:17:09;;;;;;;0.60;0.55;;;13.30;99.90;;;;;;7391498;19;20154;-75
2023/10/22 07:19:36;;;;;;;0.68;0.50;;;13.40;99.90;;;;;;7390798;19;20201;-75
2023/10/22 07:22:02;;;;;;;0.30;0.30;;;13.30;99.90;;;;;;7393331;19;20146;-77
2023/10/22 07:24:28;;;;;;;0.40;0.40;;;13.30;99.90;;;;;;7390366;19;20138;-80
2023/10/22 07:26:54;;;;;;;0.30;0.30;;;13.30;99.90;;;;;;7391005;19;20133;-76
2023/10/22 07:29:23;;;;;;;0.30;0.30;;;13.40;99.90;;;;;;7392816;19;20622;-75
2023/10/22 07:31:52;;;;;;;0.30;0.30;;;13.60;99.90;;;;;;7392027;19;20139;-76
2023/10/22 07:34:17;;;;;;;0.40;0.40;;;13.40;99.90;;;;;;7392897;19;20219;-77
2023/10/22 07:36:43;;;;;;;1.10;0.55;;;13.30;99.90;;;;;;7393401;19;20139;-77
2023/10/22 07:39:10;;;;;;;1.20;0.57;;;13.20;99.90;;;;;;7392602;19;20131;-78
2023/10/22 07:41:36;;;;;;;1.65;0.85;;;13.40;99.90;;;;;;7390724;19;20671;-77
2023/10/22 07:44:02;;;;;;;0.30;0.28;;;13.50;99.90;;;;;;7393466;19;20134;-80
2023/10/22 07:46:28;;;;;;;0.30;0.30;;;13.50;99.90;;;;;;7389810;19;20620;-76
2023/10/22 07:48:53;;;;;;;0.30;0.30;;;13.60;99.90;;;;;;7388365;19;20155;-78
2023/10/22 07:51:21;;;;;;;1.10;0.30;;;13.60;99.90;;;;;;7390878;19;20158;-83
2023/10/22 07:53:50;;;;;;;0.45;0.30;;;13.70;99.90;;;;;;7386756;19;20550;-77
2023/10/22 07:56:18;;;;;;;0.28;0.28;;;13.90;99.90;;;;;;7390895;19;20155;-76
2023/10/22 07:58:43;;;;;;;0.82;0.40;;;13.70;99.90;;;;;;7390799;19;20141;-77
2023/10/22 08:01:09;;;;;;;0.70;0.43;;;13.80;99.90;;;;;;7391377;19;20141;-77
2023/10/22 08:03:35;;;;;;;1.55;0.68;;;13.80;99.90;;;;;;7388951;19;20151;-77
2023/10/22 08:06:02;;;;;;;0.22;0.22;;;13.80;99.90;;;;;;7387493;19;20241;-76
2023/10/22 08:08:28;;;;;;;0.40;0.40;;;13.90;99.90;;;;;;7389221;19;20568;-76
2023/10/22 08:10:58;;;;;;;1.27;0.40;;;14.10;99.90;;;;;;7387875;19;20149;-77
2023/10/22 08:13:24;;;;;;;0.40;0.40;;;14.00;99.90;;;;;;7391134;19;20163;-78
2023/10/22 08:15:51;;;;;;;0.25;0.25;;;13.80;99.90;;;;;;7390710;19;20142;-83
2023/10/22 08:18:19;;;;;;;0.45;0.40;;;13.70;99.90;;;;;;7394680;19;20596;-77
2023/10/22 08:20:45;;;;;;;0.70;0.50;;;13.80;99.90;;;;;;7392752;19;20174;-77
2023/10/22 08:23:11;;;;;;;0.32;0.30;;;13.90;99.90;;;;;;7391331;19;20213;-78
2023/10/22 08:25:37;;;;;;;0.80;0.40;;;13.90;99.90;;;;;;7391272;19;20154;-77
2023/10/22 08:28:03;;;;;;;1.55;0.30;;;13.90;99.90;;;;;;7391441;19;20135;-77
2023/10/22 08:30:29;;;;;;;0.50;0.50;;;13.90;99.90;;;;;;7389652;19;20478;-77
2023/10/22 08:32:54;;;;;;;0.52;0.32;;;14.00;99.90;;;;;;7391704;19;20146;-78
2023/10/22 08:35:20;;;;;;;1.10;0.50;;;13.90;99.90;;;;;;7390144;19;20135;-77
2023/10/22 08:37:46;;;;;;;0.52;0.40;;;13.90;99.90;;;;;;7391168;19;20130;-74
2023/10/22 08:40:12;;;;;;;0.40;0.32;;;13.90;99.90;;;;;;7389233;19;20147;-76
2023/10/22 08:42:38;;;;;;;0.20;0.20;;;14.00;99.90;;;;;;7389201;19;20251;-76
2023/10/22 08:45:06;;;;;;;0.50;0.35;;;14.10;99.90;;;;;;7387884;19;20134;-75
2023/10/22 08:47:33;;;;;;;1.92;0.43;;;14.00;99.90;;;;;;7392055;19;20162;-77
2023/10/22 08:50:00;;;;;;;0.60;0.55;;;14.10;99.90;;;;;;7383652;19;20138;-75
2023/10/22 08:52:27;;;;;;;0.82;0.75;;;14.30;99.90;;;;;;7392157;19;20131;-74
2023/10/22 08:54:53;;;;;;;0.45;0.45;;;14.20;99.90;;;;;;7393764;19;20198;-74
2023/10/22 08:57:21;;;;;;;0.50;0.50;;;14.30;99.90;;;;;;7396218;19;20146;-74
2023/10/22 08:59:48;;;;;;;1.08;0.40;;;14.40;99.90;;;;;;7398181;19;20147;-75
2023/10/22 09:02:23;;;;;;;0.35;0.35;;;14.40;99.90;;;;;;7397187;19;20143;-75
2023/10/22 09:04:49;;;;;;;0.30;0.30;;;14.40;99.90;;;;;;7396881;19;20130;-75
2023/10/22 09:07:15;;;;;;;1.65;0.63;;;14.50;99.90;;;;;;7392726;19;20191;-75
2023/10/22 09:09:43;;;;;;;1.15;0.55;;;14.50;99.90;;;;;;7395766;19;20127;-74
2023/10/22 09:12:08;;;;;;;0.55;0.52;;;14.70;99.90;;;;;;7399328;19;20131;-73
2023/10/22 09:14:35;;;;;;;0.85;0.70;;;14.70;99.90;;;;;;7396660;19;20302;-76
2023/10/22 09:17:15;;;;;;;1.80;0.80;;;14.80;99.90;;;;;;7395945;19;20127;-76
2023/10/22 09:19:41;;;;;;;0.30;0.30;;;14.90;99.90;;;;;;7395477;19;20509;-74
2023/10/22 09:22:24;;;;;;;1.08;0.40;;;15.00;99.90;;;;;;7395218;19;20174;-77
2023/10/22 09:24:59;;;;;;;0.50;0.50;;;15.00;99.90;;;;;;7393453;19;20131;-78
2023/10/22 09:27:26;;;;;;;0.30;0.30;;;15.20;99.90;;;;;;7399255;19;20221;-74
2023/10/22 09:30:00;;;;;;;0.77;0.55;;;15.30;99.90;;;;;;7392035;19;20131;-74
2023/10/22 09:32:26;;;;;;;0.80;0.57;;;15.30;99.90;;;;;;7397205;19;20130;-75
2023/10/22 09:34:52;;;;;;;0.22;0.22;;;15.50;99.90;;;;;;7395901;19;20127;-74
2023/10/22 09:37:18;;;;;;;1.33;0.70;;;15.70;99.90;;;;;;7392487;19;20138;-75
2023/10/22 09:39:45;;;;;;;1.17;0.35;;;15.80;99.90;;;;;;7394605;19;20237;-75
2023/10/22 09:42:12;;;;;;;0.47;0.30;;;16.10;99.90;;;;;;7393064;19;20135;-74
2023/10/22 09:44:40;;;;;;;0.47;0.40;;;16.20;99.90;;;;;;7395277;19;20826;-76
2023/10/22 09:47:07;;;;;;;0.60;0.30;;;16.30;99.90;;;;;;7391053;19;20948;-76
2023/10/22 09:49:35;;;;;;;0.65;0.35;;;16.30;99.90;;;;;;7390971;19;20548;-76
2023/10/22 09:52:03;;;;;;;1.00;0.77;;;16.50;99.90;;;;;;7389956;19;20143;-75
2023/10/22 09:54:39;;;;;;;0.60;0.43;;;16.70;99.90;;;;;;7392635;19;20506;-75
2023/10/22 09:57:16;;;;;;;0.20;0.20;;;16.70;99.90;;;;;;7391758;19;20539;-75
2023/10/22 09:59:42;;;;;;;0.30;0.30;;;16.70;99.90;;;;;;7394002;19;20162;-76
2023/10/22 10:02:17;;;;;;;0.43;0.40;;;16.90;99.90;;;;;;7393463;19;20131;-74
2023/10/22 10:04:43;;;;;;;1.65;0.95;;;17.10;99.90;;;;;;7392595;19;20178;-81
2023/10/22 10:07:09;;;;;;;0.47;0.30;;;17.10;99.90;;;;;;7390691;19;20182;-79
2023/10/22 10:09:36;;;;;;;0.95;0.50;;;17.20;99.90;;;;;;7391709;19;20491;-77
2023/10/22 10:12:08;;;;;;;0.20;0.20;;;17.00;99.90;;;;;;7394109;19;20522;-77
2023/10/22 10:14:49;;;;;;;1.65;0.52;;;17.00;99.90;;;;;;7391137;19;20600;-76
2023/10/22 10:17:16;;;;;;;0.90;0.30;;;17.20;99.90;;;;;;7392225;19;20142;-78
2023/10/22 10:19:42;;;;;;;0.30;0.30;;;17.20;99.90;;;;;;7394228;19;20142;-76
2023/10/22 10:22:29;;;;;;;0.43;0.40;;;17.20;99.90;;;;;;7394727;19;20142;-77
2023/10/22 10:25:30;;;;;;;0.50;0.47;;;17.30;99.90;;;;;;7391796;19;20146;-76
2023/10/22 10:28:09;;;;;;;0.22;0.20;;;17.20;99.90;;;;;;7391558;19;20137;-76
2023/10/22 10:30:35;;;;;;;0.28;0.22;;;17.00;99.90;;;;;;7392216;19;20584;-76
2023/10/22 10:33:02;;;;;;;0.90;0.40;;;17.00;99.90;;;;;;7389784;19;20623;-76
2023/10/22 10:35:28;;;;;;;0.20;0.20;;;16.90;99.90;;;;;;7388724;19;20150;-77
2023/10/22 10:38:13;;;;;;;0.93;0.52;;;16.70;99.90;;;;;;7390223;19;20149;-76
2023/10/22 10:40:47;;;;;;;0.32;0.32;;;16.70;99.90;;;;;;7393009;19;20134;-75
2023/10/22 10:43:13;;;;;;;1.98;0.30;;;16.70;99.90;;;;;;7391592;19;20141;-75
2023/10/22 10:45:59;;;;;;;0.35;0.20;;;16.70;99.90;;;;;;7389837;19;20138;-76
2023/10/22 10:48:45;;;;;;;0.90;0.40;;;16.80;99.90;;;;;;7391416;19;20151;-74
2023/10/22 10:51:26;;;;;;;0.30;0.30;;;16.50;99.90;;;;;;7393726;19;20239;-74
2023/10/22 10:54:02;;;;;;;0.30;0.10;;;16.50;99.90;;;;;;7395451;19;20199;-75
2023/10/22 10:56:51;;;;;;;0.80;0.52;;;16.30;99.90;;;;;;7389181;19;20142;-77
2023/10/22 10:59:27;;;;;;;0.47;0.32;;;16.20;99.90;;;;;;7390015;19;20134;-82
2023/10/22 11:01:59;;;;;;;0.55;0.50;;;16.20;99.90;;;;;;7394965;19;20126;-78
2023/10/22 11:04:25;;;;;;;0.32;0.32;;;16.20;99.90;;;;;;7392704;19;20134;-76
2023/10/22 11:06:52;;;;;;;2.88;0.93;;;16.20;99.90;;;;;;7385966;19;20188;-78
2023/10/22 11:09:18;;;;;;;0.82;0.30;;;16.20;99.90;;;;;;7386425;19;20223;-78
2023/10/22 11:12:04;;;;;;;0.75;0.38;;;16.40;99.90;;;;;;7394672;19;20213;-81
2023/10/22 11:14:40;;;;;;;2.50;0.57;;;16.70;99.90;;;;;;7396944;19;20138;-81
2023/10/22 11:17:06;;;;;;;1.75;0.30;;;17.10;99.90;;;;;;7390890;19;20404;-79
2023/10/22 11:19:33;;;;;;;0.47;0.47;;;17.30;99.90;;;;;;7396374;19;20142;-83
2023/10/22 11:22:00;;;;;;;1.92;1.65;;;17.70;99.90;;;;;;7397327;19;20131;-85
2023/10/22 11:24:34;;;;;;;0.30;0.30;;;18.10;99.90;;;;;;7397083;19;20459;-87
2023/10/22 11:27:02;;;;;;;0.95;0.60;;;17.90;99.90;;;;;;7395751;19;20166;-87
2023/10/22 11:29:29;;;;;;;0.30;0.30;;;18.00;99.90;;;;;;7396584;19;20154;-86
2023/10/22 11:31:59;;;;;;;0.95;0.60;;;18.30;99.90;;;;;;7397408;19;20139;-86
2023/10/22 11:34:26;;;;;;;0.40;0.32;;;18.00;99.90;;;;;;7394786;19;20158;-83
2023/10/22 11:36:59;;;;;;;0.50;0.50;;;17.70;99.90;;;;;;7396317;19;20135;-82
2023/10/22 11:39:34;;;;;;;0.65;0.50;;;17.70;99.90;;;;;;7394559;19;20142;-81
2023/10/22 11:42:01;;;;;;;0.20;0.20;;;17.60;99.90;;;;;;7390652;19;20138;-77
2023/10/22 11:44:32;;;;;;;0.30;0.30;;;17.40;99.90;;;;;;7386616;19;20150;-77
2023/10/22 11:46:59;;;;;;;0.20;0.20;;;17.30;99.90;;;;;;7385116;19;20130;-76
2023/10/22 11:49:25;;;;;;;0.50;0.50;;;17.10;99.90;;;;;;7391284;19;20135;-81
2023/10/22 11:51:51;;;;;;;1.10;0.50;;;17.20;99.90;;;;;;7391826;19;20587;-86
2023/10/22 11:54:17;;;;;;;0.38;0.38;;;17.30;99.90;;;;;;7392343;19;20477;-86
2023/10/22 11:56:42;;;;;;;0.20;0.20;;;17.60;99.90;;;;;;7393684;19;20134;-86
2023/10/22 11:59:08;;;;;;;0.77;0.40;;;17.70;99.90;;;;;;7394636;19;20173;-86
2023/10/22 12:01:34;;;;;;;1.00;0.50;;;18.00;99.90;;;;;;7393689;19;20134;-85
2023/10/22 12:04:00;;;;;;;0.52;0.30;;;18.10;99.90;;;;;;7393044;19;20503;-86
2023/10/22 12:06:26;;;;;;;0.95;0.47;;;18.00;99.90;;;;;;7392410;19;20196;-85
2023/10/22 12:08:52;;;;;;;1.65;0.65;;;18.00;99.90;;;;;;7392346;19;20485;-86
2023/10/22 12:11:17;;;;;;;0.30;0.30;;;17.90;99.90;;;;;;7392326;19;20139;-82
2023/10/22 12:13:43;;;;;;;0.57;0.45;;;17.90;99.90;;;;;;7390568;19;20241;-77
2023/10/22 12:16:10;;;;;;;0.47;0.40;;;17.70;99.90;;;;;;7390023;19;20588;-78
2023/10/22 12:18:36;;;;;;;0.22;0.22;;;17.90;99.90;;;;;;7390000;19;20139;-78
2023/10/22 12:21:01;;;;;;;0.30;0.30;;;18.00;99.90;;;;;;7390106;19;20146;-77
2023/10/22 12:23:27;;;;;;;0.85;0.40;;;18.00;99.90;;;;;;7391824;19;20143;-77
2023/10/22 12:25:53;;;;;;;0.90;0.40;;;18.10;99.90;;;;;;7394126;19;20138;-79
2023/10/22 12:28:24;;;;;;;0.45;0.38;;;18.10;99.90;;;;;;7391533;19;20167;-77
2023/10/22 12:30:50;;;;;;;0.45;0.35;;;18.30;99.90;;;;;;7398660;19;20159;-77
2023/10/22 12:33:16;;;;;;;0.20;0.20;;;18.10;99.90;;;;;;7398594;19;20146;-76
2023/10/22 12:35:42;;;;;;;0.45;0.25;;;18.30;99.90;;;;;;7394610;19;20138;-78
2023/10/22 12:38:08;;;;;;;0.52;0.38;;;18.00;99.90;;;;;;7399533;19;20139;-76
2023/10/22 12:40:35;;;;;;;1.52;0.90;;;17.80;99.90;;;;;;7397470;19;20154;-77
2023/10/22 12:43:01;;;;;;;0.40;0.35;;;17.90;99.90;;;;;;7399166;19;20158;-79
2023/10/22 12:45:27;;;;;;;0.57;0.52;;;18.10;99.90;;;;;;7397784;19;20158;-76
2023/10/22 12:47:53;;;;;;;1.50;0.47;;;18.30;99.90;;;;;;7399513;19;20202;-75
2023/10/22 12:50:19;;;;;;;1.17;0.57;;;18.60;99.90;;;;;;7394286;19;20134;-77